createdAt,value
2022-10-17T00:02:17.337Z,81.19
2022-10-17T00:04:44.134Z,81.04
2022-10-17T00:07:11.131Z,80.48
2022-10-17T00:09:37.967Z,80.25
2022-10-17T00:12:04.982Z,80.89
2022-10-17T00:14:31.854Z,81.70
2022-10-17T00:16:58.650Z,80.95
2022-10-17T00:19:44.328Z,81.08
2022-10-17T00:22:11.264Z,80.68
2022-10-17T00:24:38.074Z,81.34
2022-10-17T00:27:05.010Z,81.67
2022-10-17T00:29:31.814Z,81.08
2022-10-17T00:32:01.332Z,81.28
2022-10-17T00:34:29.790Z,81.56
2022-10-17T00:36:56.616Z,81.17
2022-10-17T00:39:23.552Z,81.50
2022-10-17T00:41:50.642Z,81.33
2022-10-17T00:44:29.526Z,81.71
2022-10-17T00:46:59.114Z,81.34
2022-10-17T00:49:28.719Z,81.48
2022-10-17T00:51:59.249Z,81.22
2022-10-17T00:54:35.660Z,81.86
2022-10-17T00:57:03.564Z,81.78
2022-10-17T00:59:34.094Z,82.50
2022-10-17T01:02:04.794Z,81.69
2022-10-17T01:04:32.086Z,82.23
2022-10-17T01:06:59.043Z,82.15
2022-10-17T01:09:27.474Z,82.24
2022-10-17T01:12:21.358Z,82.37
2022-10-17T01:14:51.002Z,82.93
2022-10-17T01:17:34.027Z,81.07
2022-10-17T01:20:34.903Z,82.06
2022-10-17T01:23:28.341Z,82.03
2022-10-17T01:26:21.519Z,82.43
2022-10-17T01:29:26.458Z,82.39
2022-10-17T01:32:02.154Z,82.45
2022-10-17T01:35:00.190Z,81.74
2022-10-17T01:37:37.534Z,81.80
2022-10-17T01:40:12.823Z,82.04
2022-10-17T01:43:02.934Z,81.86
2022-10-17T01:45:29.664Z,82.66
2022-10-17T01:48:00.827Z,82.45
2022-10-17T01:50:51.686Z,82.18
2022-10-17T01:53:36.040Z,82.79
2022-10-17T01:56:08.046Z,82.86
2022-10-17T01:58:58.588Z,82.85
2022-10-17T02:01:29.666Z,82.47
2022-10-17T02:03:58.362Z,84.07
2022-10-17T02:06:25.503Z,83.45
2022-10-17T02:08:52.435Z,84.77
2022-10-17T02:11:23.004Z,84.05
2022-10-17T02:13:58.877Z,83.94
2022-10-17T02:17:02.415Z,83.65
2022-10-17T02:19:57.902Z,83.63
2022-10-17T02:22:42.057Z,84.44
2022-10-17T02:25:20.642Z,83.48
2022-10-17T02:28:05.433Z,83.19
2022-10-17T02:31:02.968Z,83.35
2022-10-17T02:33:37.484Z,83.88
2022-10-17T02:36:09.544Z,83.80
2022-10-17T02:38:37.057Z,84.63
2022-10-17T02:41:07.936Z,84.51
2022-10-17T02:43:36.519Z,83.97
2022-10-17T02:46:04.236Z,83.46
2022-10-17T02:48:50.431Z,83.99
2022-10-17T02:51:26.011Z,83.98
2022-10-17T02:54:31.996Z,84.43
2022-10-17T02:57:03.562Z,82.87
2022-10-17T03:02:04.763Z,83.84
2022-10-17T03:04:32.838Z,83.99
2022-10-17T03:07:00.101Z,83.58
2022-10-17T03:09:27.652Z,83.41
2022-10-17T03:11:54.626Z,83.39
2022-10-17T03:14:21.594Z,83.61
2022-10-17T03:16:48.429Z,83.90
2022-10-17T03:19:15.380Z,83.58
2022-10-17T03:21:42.196Z,83.97
2022-10-17T03:24:09.225Z,83.36
2022-10-17T03:26:36.559Z,83.07
2022-10-17T03:29:04.072Z,83.82
2022-10-17T03:31:31.261Z,84.15
2022-10-17T03:33:58.221Z,84.48
2022-10-17T03:36:25.255Z,83.92
2022-10-17T03:38:55.482Z,85.00
2022-10-17T03:41:22.432Z,84.59
2022-10-17T03:43:49.394Z,84.56
2022-10-17T03:48:48.107Z,84.37
2022-10-17T03:51:15.643Z,84.77
2022-10-17T03:53:42.657Z,84.72
2022-10-17T03:56:21.805Z,84.32
2022-10-17T03:58:49.215Z,84.56
2022-10-17T04:01:17.739Z,84.39
2022-10-17T04:03:44.879Z,84.74
2022-10-17T04:06:13.047Z,84.50
2022-10-17T04:08:40.263Z,84.70
2022-10-17T04:11:08.561Z,84.01
2022-10-17T04:13:36.123Z,83.31
2022-10-17T04:16:08.730Z,84.19
2022-10-17T04:18:35.678Z,84.68
2022-10-17T04:21:03.684Z,84.41
2022-10-17T04:23:30.860Z,84.36
2022-10-17T04:25:58.935Z,84.82
2022-10-17T04:28:27.464Z,84.25
2022-10-17T04:31:02.147Z,84.83
2022-10-17T04:33:29.609Z,84.45
2022-10-17T04:36:04.805Z,84.11
2022-10-17T04:38:33.069Z,85.14
2022-10-17T04:41:05.245Z,84.74
2022-10-17T04:43:37.154Z,85.26
2022-10-17T04:46:07.231Z,85.17
2022-10-17T04:48:34.034Z,85.18
2022-10-17T04:51:04.627Z,83.97
2022-10-17T04:53:33.983Z,83.92
2022-10-17T04:56:01.168Z,84.61
2022-10-17T04:58:31.018Z,85.36
2022-10-17T05:00:57.958Z,84.71
2022-10-17T05:03:24.972Z,84.99
2022-10-17T05:05:51.855Z,84.72
2022-10-17T05:08:18.679Z,84.58
2022-10-17T05:10:48.629Z,80.42
2022-10-17T05:13:16.202Z,78.85
2022-10-17T05:15:43.051Z,75.45
2022-10-17T05:18:10.068Z,74.44
2022-10-17T05:20:36.964Z,71.89
2022-10-17T05:23:03.832Z,70.90
2022-10-17T05:25:30.711Z,70.25
2022-10-17T05:27:57.628Z,69.03
2022-10-17T05:30:24.615Z,68.75
2022-10-17T05:32:55.252Z,65.47
2022-10-17T05:35:22.889Z,64.46
2022-10-17T05:37:49.750Z,62.72
2022-10-17T05:40:16.774Z,61.51
2022-10-17T05:42:48.057Z,60.91
2022-10-17T05:45:16.087Z,57.13
2022-10-17T05:47:42.997Z,56.68
2022-10-17T05:50:10.521Z,56.53
2022-10-17T05:52:37.448Z,56.30
2022-10-17T05:55:05.880Z,55.25
2022-10-17T05:57:32.972Z,54.41
2022-10-17T06:00:01.035Z,52.88
2022-10-17T06:02:28.144Z,51.08
2022-10-17T06:04:55.452Z,50.25
2022-10-17T06:07:22.408Z,47.06
2022-10-17T06:09:49.267Z,47.75
2022-10-17T06:12:16.387Z,47.21
2022-10-17T06:14:43.308Z,46.74
2022-10-17T06:17:15.568Z,44.65
2022-10-17T06:19:44.936Z,43.10
2022-10-17T06:22:12.386Z,44.13
2022-10-17T06:24:39.328Z,42.65
2022-10-17T06:27:10.895Z,42.04
2022-10-17T06:29:57.463Z,41.17
2022-10-17T06:32:24.450Z,40.96
2022-10-17T06:34:51.358Z,38.55
2022-10-17T06:37:18.971Z,38.55
2022-10-17T06:39:45.900Z,38.16
2022-10-17T06:42:12.960Z,36.45
2022-10-17T06:44:41.200Z,36.08
2022-10-17T06:47:08.225Z,36.32
2022-10-17T06:49:35.134Z,35.60
2022-10-17T06:52:02.003Z,36.85
2022-10-17T06:54:28.924Z,36.48
2022-10-17T06:56:56.377Z,37.38
2022-10-17T06:59:23.277Z,37.12
2022-10-17T07:01:50.412Z,38.32
2022-10-17T07:04:17.468Z,37.14
2022-10-17T07:06:44.484Z,37.28
2022-10-17T07:09:11.476Z,37.60
2022-10-17T07:11:38.455Z,38.33
2022-10-17T07:14:05.325Z,39.54
2022-10-17T07:16:32.705Z,37.39
2022-10-17T07:18:59.794Z,37.27
2022-10-17T07:21:29.789Z,35.52
2022-10-17T07:23:56.710Z,35.41
2022-10-17T07:26:23.608Z,34.83
2022-10-17T07:28:54.419Z,35.73
2022-10-17T07:31:22.876Z,35.83
2022-10-17T07:33:50.327Z,35.19
2022-10-17T07:36:18.096Z,36.10
2022-10-17T07:38:45.132Z,35.69
2022-10-17T07:41:17.762Z,35.56
2022-10-17T07:43:48.042Z,37.44
2022-10-17T07:46:14.894Z,36.10
2022-10-17T07:48:41.756Z,36.54
2022-10-17T07:51:10.053Z,36.49
2022-10-17T07:53:38.748Z,36.76
2022-10-17T07:56:07.680Z,36.90
2022-10-17T07:58:35.639Z,36.36
2022-10-17T08:01:14.822Z,38.04
2022-10-17T08:03:44.615Z,36.51
2022-10-17T08:06:12.726Z,36.29
2022-10-17T08:08:39.727Z,36.21
2022-10-17T08:11:12.002Z,35.46
2022-10-17T08:13:40.570Z,36.08
2022-10-17T08:16:10.716Z,34.69
2022-10-17T08:18:40.662Z,33.73
2022-10-17T08:21:08.644Z,34.68
2022-10-17T08:23:36.544Z,34.09
2022-10-17T08:26:05.966Z,33.76
2022-10-17T08:28:35.867Z,34.05
2022-10-17T08:31:05.083Z,34.44
2022-10-17T08:33:33.427Z,33.84
2022-10-17T08:36:02.093Z,33.61
2022-10-17T08:38:32.111Z,33.09
2022-10-17T08:41:21.850Z,33.12
2022-10-17T08:44:33.429Z,33.49
2022-10-17T08:47:04.648Z,33.09
2022-10-17T08:49:47.295Z,33.36
2022-10-17T08:52:32.942Z,33.00
2022-10-17T08:54:59.881Z,33.61
2022-10-17T08:57:29.121Z,34.08
2022-10-17T08:59:57.463Z,33.91
2022-10-17T09:02:45.080Z,33.78
2022-10-17T09:05:44.335Z,33.37
2022-10-17T09:08:23.275Z,32.52
2022-10-17T09:10:56.664Z,32.97
2022-10-17T09:13:54.477Z,33.18
2022-10-17T09:16:38.432Z,33.06
2022-10-17T09:19:29.493Z,33.05
2022-10-17T09:22:09.503Z,32.44
2022-10-17T09:24:39.178Z,33.08
2022-10-17T09:27:29.978Z,33.75
2022-10-17T09:30:44.212Z,33.84
2022-10-17T09:33:34.283Z,33.69
2022-10-17T09:36:05.921Z,34.54
2022-10-17T09:38:45.982Z,34.28
2022-10-17T09:41:44.194Z,33.90
2022-10-17T09:44:22.118Z,33.85
2022-10-17T09:50:31.954Z,32.20
2022-10-17T09:53:11.659Z,32.14
2022-10-17T09:55:51.152Z,31.92
2022-10-17T09:58:18.064Z,32.89
2022-10-17T10:00:47.695Z,32.60
2022-10-17T10:03:22.078Z,32.83
2022-10-17T10:06:05.169Z,33.02
2022-10-17T10:08:36.025Z,32.59
2022-10-17T10:11:13.415Z,32.69
2022-10-17T10:13:41.248Z,32.92
2022-10-17T10:16:41.668Z,31.90
2022-10-17T10:19:26.739Z,32.54
2022-10-17T10:22:00.025Z,32.26
2022-10-17T10:24:30.754Z,32.36
2022-10-17T10:27:02.600Z,31.90
2022-10-17T10:29:34.416Z,31.06
2022-10-17T10:32:29.642Z,31.15
2022-10-17T10:35:23.099Z,31.73
2022-10-17T10:37:56.458Z,31.11
2022-10-17T10:40:27.597Z,30.84
2022-10-17T10:43:04.029Z,30.87
2022-10-17T10:45:53.387Z,31.58
2022-10-17T10:48:24.658Z,30.62
2022-10-17T10:51:14.692Z,29.98
2022-10-17T10:54:18.007Z,29.86
2022-10-17T10:56:53.688Z,30.70
2022-10-17T10:59:35.573Z,30.27
2022-10-17T11:02:34.496Z,30.90
2022-10-17T11:05:21.181Z,31.72
2022-10-17T11:08:04.236Z,30.87
2022-10-17T11:10:44.588Z,30.60
2022-10-17T11:13:18.172Z,30.66
2022-10-17T11:15:52.812Z,29.39
2022-10-17T11:18:41.221Z,29.60
2022-10-17T11:21:24.434Z,30.26
2022-10-17T11:24:17.683Z,30.02
2022-10-17T11:27:06.970Z,30.25
2022-10-17T11:29:38.426Z,30.09
2022-10-17T11:32:35.299Z,30.09
2022-10-17T11:35:36.859Z,30.23
2022-10-17T11:38:26.804Z,30.74
2022-10-17T11:40:59.929Z,31.35
2022-10-17T11:43:35.592Z,31.16
2022-10-17T11:46:11.640Z,31.24
2022-10-17T11:49:01.072Z,30.46
2022-10-17T11:54:28.911Z,37.12
2022-10-17T11:57:37.474Z,30.37
2022-10-17T12:00:49.121Z,29.96
2022-10-17T12:03:35.069Z,30.40
2022-10-17T12:06:40.433Z,30.18
2022-10-17T12:09:20.995Z,30.46
2022-10-17T12:12:04.672Z,29.78
2022-10-17T12:14:41.955Z,29.53
2022-10-17T12:17:35.591Z,29.66
2022-10-17T12:20:35.781Z,29.06
2022-10-17T12:23:11.446Z,29.64
2022-10-17T12:26:01.535Z,28.64
2022-10-17T12:28:44.614Z,29.18
2022-10-17T12:31:29.564Z,28.93
2022-10-17T12:34:02.223Z,26.10
2022-10-17T12:36:29.084Z,25.61
2022-10-17T12:39:01.969Z,25.75
2022-10-17T12:41:45.174Z,26.21
2022-10-17T12:44:15.142Z,26.56
2022-10-17T12:46:45.060Z,26.11
2022-10-17T12:49:39.733Z,25.48
2022-10-17T12:52:15.393Z,25.40
2022-10-17T12:55:00.364Z,25.17
2022-10-17T12:57:55.809Z,25.24
2022-10-17T13:00:25.480Z,25.65
2022-10-17T13:02:54.942Z,25.61
2022-10-17T13:05:31.794Z,25.58
2022-10-17T13:08:02.455Z,25.85
2022-10-17T13:10:33.623Z,25.66
2022-10-17T13:13:15.806Z,26.14
2022-10-17T13:15:50.636Z,25.84
2022-10-17T13:18:23.456Z,25.09
2022-10-17T13:21:14.492Z,25.67
2022-10-17T13:23:41.625Z,25.47
2022-10-17T13:26:26.785Z,26.40
2022-10-17T13:29:12.680Z,27.02
2022-10-17T13:31:42.453Z,27.36
2022-10-17T13:34:18.391Z,27.10
2022-10-17T13:36:49.244Z,27.32
2022-10-17T13:39:23.090Z,27.06
2022-10-17T13:41:59.856Z,27.22
2022-10-17T13:44:32.638Z,26.96
2022-10-17T13:46:59.730Z,26.50
2022-10-17T13:49:34.830Z,26.25
2022-10-17T13:52:05.360Z,26.71
2022-10-17T13:54:36.956Z,26.13
2022-10-17T13:57:05.856Z,25.81
2022-10-17T13:59:43.545Z,24.17
2022-10-17T14:02:25.472Z,23.72
2022-10-17T14:05:19.340Z,23.93
2022-10-17T14:08:11.334Z,23.67
2022-10-17T14:10:41.176Z,23.73
2022-10-17T14:13:23.013Z,23.54
2022-10-17T14:15:51.131Z,24.55
2022-10-17T14:18:24.117Z,24.38
2022-10-17T14:23:44.170Z,23.82
2022-10-17T14:26:18.911Z,23.79
2022-10-17T14:29:07.580Z,23.63
2022-10-17T14:31:37.631Z,23.97
2022-10-17T14:34:05.733Z,24.23
2022-10-17T14:36:36.225Z,24.45
2022-10-17T14:39:05.094Z,24.56
2022-10-17T14:41:42.791Z,24.71
2022-10-17T14:44:19.094Z,25.09
2022-10-17T14:46:50.804Z,25.28
2022-10-17T14:49:25.440Z,26.67
2022-10-17T14:52:18.594Z,24.81
2022-10-17T14:54:48.329Z,25.14
2022-10-17T14:57:19.418Z,25.49
2022-10-17T14:59:55.081Z,25.81
2022-10-17T15:02:27.845Z,26.14
2022-10-17T15:04:55.211Z,26.53
2022-10-17T15:07:22.432Z,27.19
2022-10-17T15:09:51.191Z,27.39
2022-10-17T15:12:20.758Z,27.75
2022-10-17T15:14:48.682Z,27.80
2022-10-17T15:17:20.982Z,28.14
2022-10-17T15:19:48.807Z,28.68
2022-10-17T15:22:16.388Z,28.86
2022-10-17T15:24:43.370Z,29.01
2022-10-17T15:27:24.662Z,29.24
2022-10-17T15:29:53.186Z,29.49
2022-10-17T15:32:20.106Z,29.73
2022-10-17T15:34:47.266Z,30.04
2022-10-17T15:37:25.591Z,30.48
2022-10-17T15:39:55.712Z,30.61
2022-10-17T15:42:26.889Z,30.76
2022-10-17T15:44:54.044Z,31.01
2022-10-17T15:47:35.491Z,31.34
2022-10-17T15:50:22.049Z,31.47
2022-10-17T15:52:51.160Z,31.71
2022-10-17T15:55:18.447Z,31.84
2022-10-17T15:57:47.621Z,32.25
2022-10-17T16:00:20.733Z,33.57
2022-10-17T16:02:50.228Z,33.75
2022-10-17T16:05:29.348Z,34.80
2022-10-17T16:07:57.654Z,35.03
2022-10-17T16:10:26.141Z,35.69
2022-10-17T16:12:53.134Z,36.04
2022-10-17T16:15:24.123Z,36.63
2022-10-17T16:17:52.443Z,36.77
2022-10-17T16:20:20.373Z,38.35
2022-10-17T16:22:48.525Z,38.85
2022-10-17T16:25:22.624Z,39.03
2022-10-17T16:27:53.073Z,39.32
2022-10-17T16:32:49.501Z,39.85
2022-10-17T16:35:18.892Z,40.05
2022-10-17T16:37:45.857Z,40.73
2022-10-17T16:40:31.225Z,41.65
2022-10-17T16:42:58.319Z,41.91
2022-10-17T16:45:25.164Z,42.43
2022-10-17T16:47:53.361Z,43.03
2022-10-17T16:50:20.347Z,43.87
2022-10-17T16:52:47.392Z,44.66
2022-10-17T16:55:14.668Z,44.03
2022-10-17T17:00:12.130Z,44.61
2022-10-17T17:02:39.051Z,42.97
2022-10-17T17:05:06.347Z,42.64
2022-10-17T17:07:33.891Z,42.42
2022-10-17T17:10:00.766Z,44.26
2022-10-17T17:12:27.567Z,45.37
2022-10-17T17:14:54.379Z,46.22
2022-10-17T17:17:30.589Z,47.27
2022-10-17T17:20:08.486Z,46.90
2022-10-17T17:22:35.426Z,46.90
2022-10-17T17:25:02.252Z,47.17
2022-10-17T17:27:29.474Z,47.62
2022-10-17T17:29:56.577Z,47.05
2022-10-17T17:32:23.577Z,46.66
2022-10-17T17:34:50.405Z,46.87
2022-10-17T17:37:17.526Z,47.87
2022-10-17T17:39:44.431Z,48.36
2022-10-17T17:44:48.843Z,49.02
2022-10-17T17:47:16.007Z,49.12
2022-10-17T17:49:43.183Z,49.90
2022-10-17T17:52:10.087Z,49.75
2022-10-17T17:54:40.047Z,49.81
2022-10-17T17:57:07.924Z,50.05
2022-10-17T17:59:35.481Z,50.69
2022-10-17T18:02:03.055Z,51.07
2022-10-17T18:04:29.927Z,51.51
2022-10-17T18:06:56.749Z,53.00
2022-10-17T18:09:24.186Z,54.00
2022-10-17T18:11:51.288Z,53.92
2022-10-17T18:14:19.355Z,54.76
2022-10-17T18:16:46.207Z,54.81
2022-10-17T18:19:13.117Z,55.47
2022-10-17T18:21:39.958Z,56.22
2022-10-17T18:24:07.521Z,56.71
2022-10-17T18:26:34.989Z,56.29
2022-10-17T18:29:02.406Z,56.88
2022-10-17T18:31:32.307Z,57.08
2022-10-17T18:34:00.386Z,57.66
2022-10-17T18:36:28.747Z,58.05
2022-10-17T18:38:56.417Z,58.53
2022-10-17T18:41:26.695Z,58.22
2022-10-17T18:43:55.756Z,59.35
2022-10-17T18:46:28.349Z,58.78
2022-10-17T18:48:55.258Z,58.96
2022-10-17T18:51:23.723Z,59.66
2022-10-17T18:53:53.205Z,59.51
2022-10-17T18:56:21.471Z,59.88
2022-10-17T18:58:48.474Z,59.51
2022-10-17T19:01:22.521Z,59.80
2022-10-17T19:03:52.115Z,60.62
2022-10-17T19:06:21.945Z,60.86
2022-10-17T19:08:49.063Z,59.92
2022-10-17T19:11:19.515Z,61.37
2022-10-17T19:13:47.732Z,60.91
2022-10-17T19:16:19.044Z,61.51
2022-10-17T19:18:53.916Z,61.59
2022-10-17T19:21:22.332Z,61.85
2022-10-17T19:23:51.493Z,62.65
2022-10-17T19:26:19.683Z,63.11
2022-10-17T19:28:47.768Z,62.25
2022-10-17T19:31:17.012Z,63.21
2022-10-17T19:33:44.933Z,62.89
2022-10-17T19:36:13.152Z,63.49
2022-10-17T19:38:40.182Z,64.04
2022-10-17T19:41:09.560Z,63.38
2022-10-17T19:43:38.051Z,63.82
2022-10-17T19:46:12.233Z,63.92
2022-10-17T19:48:39.498Z,64.49
2022-10-17T19:51:08.322Z,64.37
2022-10-17T19:53:35.489Z,63.99
2022-10-17T19:56:02.603Z,64.96
2022-10-17T19:58:29.482Z,64.72
2022-10-17T20:00:59.092Z,64.95
2022-10-17T20:03:25.889Z,65.86
2022-10-17T20:05:54.074Z,65.72
2022-10-17T20:08:21.574Z,65.93
2022-10-17T20:10:48.467Z,65.24
2022-10-17T20:13:15.306Z,65.62
2022-10-17T20:15:42.473Z,66.12
2022-10-17T20:18:09.863Z,66.13
2022-10-17T20:20:37.860Z,66.40
2022-10-17T20:23:05.049Z,67.04
2022-10-17T20:25:33.536Z,67.33
2022-10-17T20:28:00.732Z,68.23
2022-10-17T20:30:27.865Z,67.89
2022-10-17T20:32:55.439Z,67.81
2022-10-17T20:35:22.843Z,67.67
2022-10-17T20:37:49.965Z,67.54
2022-10-17T20:40:34.167Z,67.97
2022-10-17T20:43:01.871Z,68.72
2022-10-17T20:45:43.680Z,69.13
2022-10-17T20:48:16.235Z,69.48
2022-10-17T20:50:44.450Z,68.80
2022-10-17T20:56:08.522Z,69.74
2022-10-17T20:58:35.735Z,69.75
2022-10-17T21:01:10.616Z,69.17
2022-10-17T21:03:42.320Z,69.60
2022-10-17T21:06:13.131Z,69.51
2022-10-17T21:08:40.203Z,69.15
2022-10-17T21:11:12.158Z,69.48
2022-10-17T21:13:39.845Z,70.54
2022-10-17T21:16:18.197Z,71.13
2022-10-17T21:18:46.775Z,70.28
2022-10-17T21:21:16.483Z,70.45
2022-10-17T21:23:46.296Z,70.93
2022-10-17T21:26:13.772Z,71.26
2022-10-17T21:28:42.161Z,70.60
2022-10-17T21:31:11.259Z,70.83
2022-10-17T21:33:38.498Z,70.73
2022-10-17T21:36:05.765Z,71.21
2022-10-17T21:38:35.972Z,71.10
2022-10-17T21:41:03.283Z,71.13
2022-10-17T21:43:30.086Z,71.70
2022-10-17T21:45:56.903Z,71.34
2022-10-17T21:48:23.825Z,72.26
2022-10-17T21:50:56.935Z,72.42
2022-10-17T21:53:23.783Z,71.75
2022-10-17T21:55:50.665Z,71.28
2022-10-17T21:58:17.510Z,71.69
2022-10-17T22:00:44.343Z,72.23
2022-10-17T22:03:29.833Z,71.93
2022-10-17T22:06:07.022Z,71.78
2022-10-17T22:08:43.692Z,73.72
2022-10-17T22:11:13.492Z,73.19
2022-10-17T22:13:40.677Z,73.37
2022-10-17T22:16:11.124Z,73.20
2022-10-17T22:18:38.541Z,72.63
2022-10-17T22:21:16.283Z,73.10
2022-10-17T22:23:45.388Z,73.46
2022-10-17T22:26:12.560Z,73.49
2022-10-17T22:28:41.036Z,73.53
2022-10-17T22:33:33.824Z,74.01
2022-10-17T22:36:00.944Z,74.25
2022-10-17T22:38:28.211Z,74.36
2022-10-17T22:40:55.094Z,74.32
2022-10-17T22:43:22.091Z,74.15
2022-10-17T22:45:59.992Z,74.67
2022-10-17T22:48:28.072Z,74.35
2022-10-17T22:50:56.163Z,74.98
2022-10-17T22:53:24.958Z,74.92
2022-10-17T22:55:59.104Z,75.07
2022-10-17T22:58:27.453Z,75.74
2022-10-17T23:00:55.366Z,76.78
2022-10-17T23:03:23.652Z,76.33
2022-10-17T23:05:51.545Z,75.75
2022-10-17T23:08:19.861Z,76.04
2022-10-17T23:10:48.044Z,75.68
2022-10-17T23:13:15.562Z,75.70
2022-10-17T23:15:42.983Z,75.89
2022-10-17T23:18:10.209Z,75.95
2022-10-17T23:20:37.828Z,75.51
2022-10-17T23:23:05.331Z,75.26
2022-10-17T23:25:34.536Z,75.23
2022-10-17T23:28:01.830Z,75.15
2022-10-17T23:30:29.103Z,75.68
2022-10-17T23:32:56.139Z,75.87
2022-10-17T23:35:23.345Z,75.18
2022-10-17T23:37:50.641Z,74.30
2022-10-17T23:40:17.622Z,75.12
2022-10-17T23:42:45.222Z,74.95
2022-10-17T23:45:12.131Z,75.41
2022-10-17T23:47:39.762Z,75.76
2022-10-17T23:50:08.655Z,75.74
2022-10-17T23:52:35.521Z,75.22
2022-10-17T23:55:02.470Z,75.08
2022-10-17T23:57:29.466Z,75.85
2022-10-17T23:59:56.713Z,76.47
